createdAt,value
2019-04-28T00:02:12.860Z,4.60
2019-04-28T00:04:42.219Z,4.60
2019-04-28T00:07:11.986Z,4.50
2019-04-28T00:09:41.573Z,4.50
2019-04-28T00:12:11.587Z,4.50
2019-04-28T00:14:41.813Z,4.50
2019-04-28T00:17:11.486Z,4.50
2019-04-28T00:19:41.042Z,4.60
2019-04-28T00:22:13.249Z,4.60
2019-04-28T00:24:44.193Z,4.60
2019-04-28T00:27:13.759Z,4.50
2019-04-28T00:29:46.011Z,4.50
2019-04-28T00:32:14.075Z,4.50
2019-04-28T00:34:44.501Z,4.60
2019-04-28T00:37:24.516Z,4.60
2019-04-28T00:39:53.871Z,4.60
2019-04-28T00:42:23.196Z,4.70
2019-04-28T00:44:54.336Z,4.70
2019-04-28T00:47:23.822Z,4.80
2019-04-28T00:49:53.192Z,4.70
2019-04-28T00:52:22.580Z,4.70
2019-04-28T00:54:52.565Z,4.80
2019-04-28T00:57:23.234Z,4.80
2019-04-28T00:59:57.934Z,4.70
2019-04-28T01:02:28.480Z,4.60
2019-04-28T01:04:57.852Z,4.70
2019-04-28T01:07:27.143Z,4.70
2019-04-28T01:09:56.541Z,4.70
2019-04-28T01:12:26.102Z,4.70
2019-04-28T01:14:57.296Z,4.80
2019-04-28T01:17:29.654Z,4.70
2019-04-28T01:20:00.669Z,4.80
2019-04-28T01:22:30.095Z,4.70
2019-04-28T01:24:59.665Z,4.80
2019-04-28T01:27:30.697Z,4.70
2019-04-28T01:30:07.906Z,4.80
2019-04-28T01:32:45.015Z,4.80
2019-04-28T01:35:14.757Z,4.80
2019-04-28T01:37:44.088Z,4.80
2019-04-28T01:40:13.707Z,4.70
2019-04-28T01:42:45.981Z,4.70
2019-04-28T01:45:15.504Z,4.80
2019-04-28T01:47:44.836Z,4.90
2019-04-28T01:50:14.227Z,4.90
2019-04-28T01:52:43.634Z,5.10
2019-04-28T01:55:13.023Z,5.00
2019-04-28T01:57:42.418Z,4.90
2019-04-28T02:00:23.089Z,4.80
2019-04-28T02:02:45.085Z,4.80
2019-04-28T02:05:15.360Z,4.90
2019-04-28T02:07:45.729Z,4.80
2019-04-28T02:10:15.186Z,4.90
2019-04-28T02:12:44.491Z,4.80
2019-04-28T02:15:13.891Z,4.70
2019-04-28T02:17:43.479Z,4.70
2019-04-28T02:20:13.010Z,4.80
2019-04-28T02:22:43.974Z,4.80
2019-04-28T02:25:13.433Z,4.80
2019-04-28T02:27:42.848Z,4.80
2019-04-28T02:30:12.502Z,4.80
2019-04-28T02:32:41.970Z,4.70
2019-04-28T02:35:11.505Z,4.70
2019-04-28T02:37:40.992Z,4.80
2019-04-28T02:40:11.018Z,4.80
2019-04-28T02:42:41.063Z,4.80
2019-04-28T02:45:11.838Z,4.60
2019-04-28T02:47:41.936Z,4.70
2019-04-28T02:50:13.421Z,4.70
2019-04-28T02:53:01.606Z,4.60
2019-04-28T02:55:32.527Z,4.70
2019-04-28T02:58:01.880Z,4.50
2019-04-28T03:00:32.024Z,4.40
2019-04-28T03:03:01.788Z,4.30
2019-04-28T03:05:33.498Z,4.30
2019-04-28T03:08:02.342Z,4.20
2019-04-28T03:10:31.738Z,4.10
2019-04-28T03:13:01.577Z,4.00
2019-04-28T03:15:31.256Z,4.10
2019-04-28T03:18:01.782Z,4.10
2019-04-28T03:20:31.626Z,4.00
2019-04-28T03:23:01.255Z,3.90
2019-04-28T03:25:41.016Z,3.90
2019-04-28T03:28:31.219Z,3.70
2019-04-28T03:31:34.964Z,3.70
2019-04-28T03:33:41.934Z,3.70
2019-04-28T03:36:08.679Z,3.50
2019-04-28T03:38:40.474Z,3.50
2019-04-28T03:41:11.146Z,3.60
2019-04-28T03:43:40.890Z,3.70
2019-04-28T03:46:25.333Z,3.70
2019-04-28T03:48:54.675Z,3.70
2019-04-28T03:51:23.964Z,3.70
2019-04-28T03:53:53.280Z,3.60
2019-04-28T03:56:22.584Z,3.60
2019-04-28T03:58:51.868Z,3.60
2019-04-28T04:01:21.193Z,3.60
2019-04-28T04:03:51.595Z,3.70
2019-04-28T04:06:22.685Z,3.60
2019-04-28T04:08:51.436Z,3.70
2019-04-28T04:11:25.137Z,3.70
2019-04-28T04:14:05.000Z,3.70
2019-04-28T04:16:44.729Z,3.70
2019-04-28T04:19:15.292Z,3.50
2019-04-28T04:21:44.606Z,3.50
2019-04-28T04:24:13.917Z,3.60
2019-04-28T04:26:44.305Z,3.60
2019-04-28T04:29:13.593Z,3.50
2019-04-28T04:31:42.971Z,3.50
2019-04-28T04:34:12.269Z,3.50
2019-04-28T04:36:41.964Z,3.40
2019-04-28T04:39:11.482Z,3.50
2019-04-28T04:41:43.457Z,3.40
2019-04-28T04:44:12.046Z,3.30
2019-04-28T04:46:41.632Z,3.20
2019-04-28T04:49:11.132Z,3.40
2019-04-28T04:51:43.798Z,3.40
2019-04-28T04:54:11.452Z,3.40
2019-04-28T04:56:40.789Z,3.40
2019-04-28T04:59:10.414Z,3.40
2019-04-28T05:01:52.074Z,3.50
2019-04-28T05:04:23.023Z,3.50
2019-04-28T05:06:52.433Z,3.40
2019-04-28T05:09:21.730Z,3.50
2019-04-28T05:11:51.040Z,3.60
2019-04-28T05:14:20.347Z,3.50
2019-04-28T05:16:49.844Z,3.50
2019-04-28T05:19:19.898Z,3.50
2019-04-28T05:21:49.844Z,3.60
2019-04-28T05:24:26.688Z,3.70
2019-04-28T05:26:55.992Z,3.80
2019-04-28T05:29:26.992Z,3.90
2019-04-28T05:31:59.780Z,4.00
2019-04-28T05:34:29.681Z,4.10
2019-04-28T05:37:00.786Z,4.20
2019-04-28T05:39:31.284Z,4.30
2019-04-28T05:42:01.024Z,4.30
2019-04-28T05:44:32.089Z,4.40
2019-04-28T05:47:01.862Z,4.60
2019-04-28T05:49:41.687Z,4.70
2019-04-28T05:52:29.903Z,4.80
2019-04-28T05:55:06.813Z,4.90
2019-04-28T05:57:39.659Z,4.90
2019-04-28T06:00:27.237Z,5.10
2019-04-28T06:03:00.765Z,5.10
2019-04-28T06:05:31.880Z,5.10
2019-04-28T06:08:07.080Z,5.30
2019-04-28T06:10:37.460Z,5.40
2019-04-28T06:13:06.789Z,5.60
2019-04-28T06:15:36.597Z,5.70
2019-04-28T06:18:05.929Z,5.80
2019-04-28T06:20:35.246Z,5.90
2019-04-28T06:23:04.544Z,5.90
2019-04-28T06:25:33.873Z,6.00
2019-04-28T06:28:03.186Z,6.10
2019-04-28T06:30:32.474Z,6.10
2019-04-28T06:33:07.936Z,6.20
2019-04-28T06:35:32.789Z,6.20
2019-04-28T06:38:02.178Z,6.40
2019-04-28T06:40:31.475Z,6.60
2019-04-28T06:43:00.805Z,6.80
2019-04-28T06:45:30.087Z,7.00
2019-04-28T06:47:59.416Z,7.30
2019-04-28T06:50:28.706Z,7.40
2019-04-28T06:52:58.048Z,7.50
2019-04-28T06:55:27.358Z,7.60
2019-04-28T06:57:56.680Z,7.80
2019-04-28T07:00:25.984Z,8.00
2019-04-28T07:02:55.355Z,8.00
2019-04-28T07:05:24.684Z,8.00
2019-04-28T07:07:54.049Z,7.90
2019-04-28T07:10:23.368Z,7.80
2019-04-28T07:12:52.768Z,7.80
2019-04-28T07:15:22.127Z,7.80
2019-04-28T07:17:51.452Z,7.40
2019-04-28T07:20:38.485Z,7.20
2019-04-28T07:23:10.553Z,7.20
2019-04-28T07:25:41.017Z,7.10
2019-04-28T07:28:10.467Z,7.20
2019-04-28T07:30:41.472Z,7.20
2019-04-28T07:33:11.936Z,7.30
2019-04-28T07:35:41.236Z,7.40
2019-04-28T07:38:10.627Z,7.50
2019-04-28T07:40:40.096Z,7.70
2019-04-28T07:43:09.524Z,7.90
2019-04-28T07:45:38.849Z,8.00
2019-04-28T07:48:08.166Z,8.20
2019-04-28T07:50:37.465Z,8.30
2019-04-28T07:53:08.437Z,8.40
2019-04-28T07:55:37.738Z,8.50
2019-04-28T07:58:07.140Z,8.60
2019-04-28T08:00:36.440Z,8.60
2019-04-28T08:03:05.844Z,8.70
2019-04-28T08:05:35.149Z,8.60
2019-04-28T08:08:04.533Z,8.50
2019-04-28T08:10:34.905Z,8.80
2019-04-28T08:13:04.464Z,8.90
2019-04-28T08:15:33.788Z,9.10
2019-04-28T08:18:03.082Z,9.10
2019-04-28T08:20:32.958Z,9.30
2019-04-28T08:23:02.315Z,9.40
2019-04-28T08:25:31.645Z,9.70
2019-04-28T08:28:01.331Z,10.00
2019-04-28T08:30:30.760Z,10.10
2019-04-28T08:33:10.860Z,10.10
2019-04-28T08:35:40.197Z,10.20
2019-04-28T08:38:09.532Z,9.80
2019-04-28T08:40:38.830Z,9.90
2019-04-28T08:43:08.150Z,10.00
2019-04-28T08:45:37.489Z,9.90
2019-04-28T08:48:06.860Z,9.60
2019-04-28T08:50:36.199Z,9.70
2019-04-28T08:53:05.531Z,9.70
2019-04-28T08:55:34.854Z,9.80
2019-04-28T08:58:04.493Z,9.90
2019-04-28T09:00:33.810Z,10.50
2019-04-28T09:03:03.144Z,10.80
2019-04-28T09:05:32.541Z,11.20
2019-04-28T09:08:01.914Z,11.20
2019-04-28T09:10:32.317Z,11.40
2019-04-28T09:13:01.627Z,11.50
2019-04-28T09:15:31.919Z,11.40
2019-04-28T09:18:01.236Z,11.10
2019-04-28T09:20:30.651Z,10.80
2019-04-28T09:23:00.117Z,10.60
2019-04-28T09:25:29.436Z,10.30
2019-04-28T09:27:58.740Z,10.30
2019-04-28T09:30:28.304Z,10.10
2019-04-28T09:32:57.610Z,10.00
2019-04-28T09:35:26.918Z,9.70
2019-04-28T09:37:56.661Z,9.80
2019-04-28T09:40:26.037Z,9.80
2019-04-28T09:43:02.960Z,9.50
2019-04-28T09:45:36.863Z,9.50
2019-04-28T09:48:06.156Z,9.80
2019-04-28T09:50:35.469Z,10.40
2019-04-28T09:53:04.839Z,11.10
2019-04-28T09:55:34.259Z,11.80
2019-04-28T09:58:03.628Z,12.40
2019-04-28T10:00:33.717Z,12.90
2019-04-28T10:03:03.047Z,13.50
2019-04-28T10:05:32.356Z,14.20
2019-04-28T10:08:01.755Z,14.50
2019-04-28T10:10:31.231Z,14.40
2019-04-28T10:13:00.605Z,13.30
2019-04-28T10:15:29.989Z,13.00
2019-04-28T10:17:59.337Z,12.20
2019-04-28T10:20:28.642Z,11.60
2019-04-28T10:22:58.043Z,11.40
2019-04-28T10:25:27.338Z,10.80
2019-04-28T10:27:56.675Z,10.50
2019-04-28T10:30:26.040Z,10.40
2019-04-28T10:32:55.388Z,10.30
2019-04-28T10:35:24.682Z,10.30
2019-04-28T10:37:54.022Z,10.60
2019-04-28T10:40:38.905Z,11.10
2019-04-28T10:43:08.301Z,12.20
2019-04-28T10:45:42.468Z,13.60
2019-04-28T10:48:11.881Z,14.60
2019-04-28T10:50:41.339Z,15.40
2019-04-28T10:53:10.675Z,16.60
2019-04-28T10:55:39.985Z,17.10
2019-04-28T10:58:09.392Z,17.20
2019-04-28T11:00:40.301Z,17.00
2019-04-28T11:03:09.709Z,17.00
2019-04-28T11:05:43.897Z,17.40
2019-04-28T11:08:21.203Z,14.90
2019-04-28T11:10:50.599Z,13.80
2019-04-28T11:13:20.000Z,12.80
2019-04-28T11:15:49.380Z,12.40
2019-04-28T11:18:18.951Z,12.20
2019-04-28T11:20:48.282Z,12.10
2019-04-28T11:23:17.608Z,11.70
2019-04-28T11:25:46.911Z,11.20
2019-04-28T11:28:16.250Z,11.10
2019-04-28T11:30:45.552Z,11.00
2019-04-28T11:33:32.776Z,10.70
2019-04-28T11:36:02.491Z,10.40
2019-04-28T11:38:31.820Z,10.30
2019-04-28T11:41:01.143Z,10.20
2019-04-28T11:43:30.488Z,10.20
2019-04-28T11:45:59.784Z,10.70
2019-04-28T11:48:29.083Z,11.80
2019-04-28T11:50:58.453Z,13.10
2019-04-28T11:53:27.845Z,13.50
2019-04-28T11:55:57.146Z,13.80
2019-04-28T11:58:26.465Z,14.10
2019-04-28T12:00:55.931Z,15.00
2019-04-28T12:03:25.252Z,15.30
2019-04-28T12:05:54.569Z,16.00
2019-04-28T12:08:23.898Z,16.90
2019-04-28T12:11:01.115Z,17.70
2019-04-28T12:13:53.360Z,18.10
2019-04-28T12:16:36.768Z,18.40
2019-04-28T12:19:23.579Z,18.70
2019-04-28T12:22:06.933Z,17.80
2019-04-28T12:24:40.041Z,18.00
2019-04-28T12:27:10.646Z,18.40
2019-04-28T12:29:41.825Z,18.20
2019-04-28T12:32:11.342Z,17.10
2019-04-28T12:34:40.652Z,16.20
2019-04-28T12:37:09.979Z,15.40
2019-04-28T12:39:39.376Z,15.00
2019-04-28T12:42:08.704Z,14.60
2019-04-28T12:44:38.053Z,14.50
2019-04-28T12:47:07.423Z,14.50
2019-04-28T12:49:38.465Z,14.20
2019-04-28T12:52:09.590Z,15.20
2019-04-28T12:54:40.319Z,15.40
2019-04-28T12:57:09.643Z,15.90
2019-04-28T12:59:40.595Z,16.50
2019-04-28T13:02:20.711Z,17.20
2019-04-28T13:04:54.545Z,17.40
2019-04-28T13:07:23.871Z,17.60
2019-04-28T13:09:53.177Z,17.90
2019-04-28T13:12:22.580Z,18.50
2019-04-28T13:14:51.959Z,18.20
2019-04-28T13:17:21.286Z,18.70
2019-04-28T13:19:50.595Z,19.30
2019-04-28T13:22:19.932Z,18.90
2019-04-28T13:24:49.374Z,18.60
2019-04-28T13:27:18.701Z,18.00
2019-04-28T13:29:47.989Z,17.30
2019-04-28T13:32:17.397Z,17.40
2019-04-28T13:34:46.694Z,17.90
2019-04-28T13:37:16.030Z,18.20
2019-04-28T13:39:46.977Z,18.50
2019-04-28T13:42:16.378Z,18.40
2019-04-28T13:44:50.193Z,18.60
2019-04-28T13:47:19.794Z,18.90
2019-04-28T13:49:56.916Z,18.90
2019-04-28T13:52:26.247Z,19.00
2019-04-28T13:54:57.223Z,19.10
2019-04-28T13:57:26.535Z,19.10
2019-04-28T13:59:57.545Z,18.40
2019-04-28T14:02:40.651Z,17.10
2019-04-28T14:05:17.542Z,16.40
2019-04-28T14:07:46.940Z,16.20
2019-04-28T14:10:16.287Z,15.80
2019-04-28T14:12:45.668Z,15.60
2019-04-28T14:15:15.142Z,15.50
2019-04-28T14:17:44.569Z,15.00
2019-04-28T14:20:14.329Z,14.80
2019-04-28T14:22:43.747Z,14.60
2019-04-28T14:25:13.189Z,14.20
2019-04-28T14:27:42.686Z,14.20
2019-04-28T14:30:12.098Z,14.00
2019-04-28T14:32:41.436Z,13.80
2019-04-28T14:35:11.736Z,13.70
2019-04-28T14:37:41.251Z,13.80
2019-04-28T14:40:10.795Z,13.80
2019-04-28T14:42:40.112Z,13.60
2019-04-28T14:45:09.997Z,13.60
2019-04-28T14:47:39.370Z,14.00
2019-04-28T14:50:09.020Z,15.10
2019-04-28T14:52:38.436Z,15.80
2019-04-28T14:55:08.005Z,15.60
2019-04-28T14:57:37.415Z,15.30
2019-04-28T15:00:07.921Z,15.20
2019-04-28T15:02:39.236Z,15.70
2019-04-28T15:05:10.621Z,16.30
2019-04-28T15:07:47.926Z,16.10
2019-04-28T15:10:19.448Z,15.80
2019-04-28T15:12:48.804Z,15.10
2019-04-28T15:15:19.945Z,14.70
2019-04-28T15:17:49.267Z,14.50
2019-04-28T15:20:18.727Z,14.20
2019-04-28T15:22:48.274Z,13.90
2019-04-28T15:25:17.566Z,13.70
2019-04-28T15:27:46.972Z,13.60
2019-04-28T15:30:16.429Z,13.40
2019-04-28T15:32:45.769Z,13.20
2019-04-28T15:35:15.208Z,13.10
2019-04-28T15:37:44.545Z,12.90
2019-04-28T15:40:14.076Z,12.90
2019-04-28T15:42:43.577Z,12.90
2019-04-28T15:45:13.525Z,12.60
2019-04-28T15:47:43.021Z,12.80
2019-04-28T15:50:12.955Z,13.20
2019-04-28T15:52:44.464Z,14.30
2019-04-28T15:55:15.648Z,14.80
2019-04-28T15:57:47.382Z,14.90
2019-04-28T16:00:21.726Z,14.70
2019-04-28T16:02:53.647Z,14.40
2019-04-28T16:05:26.592Z,14.10
2019-04-28T16:07:56.079Z,13.90
2019-04-28T16:10:25.380Z,13.60
2019-04-28T16:12:54.789Z,13.30
2019-04-28T16:15:24.148Z,13.00
2019-04-28T16:17:53.468Z,12.50
2019-04-28T16:20:22.768Z,12.30
2019-04-28T16:22:52.172Z,12.20
2019-04-28T16:25:21.489Z,11.90
2019-04-28T16:27:50.839Z,11.70
2019-04-28T16:30:20.395Z,11.30
2019-04-28T16:32:49.727Z,11.10
2019-04-28T16:35:19.067Z,11.00
2019-04-28T16:37:48.372Z,10.80
2019-04-28T16:40:26.982Z,10.40
2019-04-28T16:42:58.740Z,10.20
2019-04-28T16:45:28.071Z,9.90
2019-04-28T16:47:57.832Z,9.70
2019-04-28T16:50:27.161Z,9.60
2019-04-28T16:52:56.453Z,9.40
2019-04-28T16:55:27.436Z,9.10
2019-04-28T16:57:58.379Z,9.10
2019-04-28T17:00:44.472Z,8.90
2019-04-28T17:03:13.941Z,8.80
2019-04-28T17:05:43.258Z,8.40
2019-04-28T17:08:12.635Z,8.20
2019-04-28T17:10:41.928Z,8.00
2019-04-28T17:13:11.322Z,8.10
2019-04-28T17:15:40.724Z,8.20
2019-04-28T17:18:10.061Z,8.20
2019-04-28T17:20:40.046Z,8.20
2019-04-28T17:23:09.422Z,8.20
2019-04-28T17:25:38.744Z,8.10
2019-04-28T17:28:08.286Z,8.10
2019-04-28T17:30:37.681Z,8.10
2019-04-28T17:33:07.060Z,8.20
2019-04-28T17:35:36.472Z,8.20
2019-04-28T17:38:07.006Z,8.20
2019-04-28T17:40:37.044Z,8.20
2019-04-28T17:43:07.612Z,8.20
2019-04-28T17:45:37.018Z,8.10
2019-04-28T17:48:08.132Z,8.10
2019-04-28T17:50:37.607Z,8.10
2019-04-28T17:53:06.973Z,8.10
2019-04-28T17:55:37.264Z,8.20
2019-04-28T17:58:06.596Z,8.30
2019-04-28T18:00:55.653Z,8.30
2019-04-28T18:03:42.571Z,8.40
2019-04-28T18:06:18.139Z,8.30
2019-04-28T18:08:44.775Z,8.00
2019-04-28T18:11:14.176Z,7.80
2019-04-28T18:13:43.515Z,7.80
2019-04-28T18:16:30.812Z,7.80
2019-04-28T18:19:01.889Z,7.90
2019-04-28T18:21:31.431Z,7.90
2019-04-28T18:24:00.767Z,7.90
2019-04-28T18:26:30.267Z,8.00
2019-04-28T18:28:59.661Z,8.00
2019-04-28T18:31:33.465Z,8.00
2019-04-28T18:34:19.450Z,8.00
2019-04-28T18:36:53.261Z,8.00
2019-04-28T18:39:40.513Z,7.80
2019-04-28T18:42:20.433Z,7.70
2019-04-28T18:44:49.769Z,7.70
2019-04-28T18:47:19.066Z,7.70
2019-04-28T18:49:48.574Z,7.60
2019-04-28T18:52:17.871Z,7.20
2019-04-28T18:54:47.192Z,7.00
2019-04-28T18:57:16.566Z,6.80
2019-04-28T18:59:45.924Z,6.90
2019-04-28T19:02:19.929Z,7.00
2019-04-28T19:04:49.282Z,6.90
2019-04-28T19:07:20.268Z,7.00
2019-04-28T19:09:51.229Z,7.10
2019-04-28T19:12:24.781Z,7.20
2019-04-28T19:15:04.820Z,7.20
2019-04-28T19:17:37.295Z,7.20
2019-04-28T19:20:06.939Z,7.20
2019-04-28T19:22:46.425Z,7.20
2019-04-28T19:25:15.802Z,7.30
2019-04-28T19:27:46.243Z,7.30
2019-04-28T19:30:15.895Z,7.30
2019-04-28T19:32:45.455Z,7.30
2019-04-28T19:35:14.760Z,7.20
2019-04-28T19:37:44.154Z,7.30
2019-04-28T19:40:13.957Z,7.30
2019-04-28T19:42:43.420Z,7.30
2019-04-28T19:45:15.673Z,7.30
2019-04-28T19:50:24.350Z,7.30
2019-04-28T19:52:56.637Z,7.20
2019-04-28T19:55:28.915Z,7.20
2019-04-28T19:58:02.872Z,7.30
2019-04-28T20:00:34.413Z,7.30
2019-04-28T20:03:03.983Z,7.30
2019-04-28T20:05:33.536Z,7.30
2019-04-28T20:08:02.936Z,7.20
2019-04-28T20:10:32.470Z,7.20
2019-04-28T20:13:01.797Z,7.10
2019-04-28T20:15:31.160Z,7.10
2019-04-28T20:18:01.642Z,7.20
2019-04-28T20:20:31.107Z,7.30
2019-04-28T20:23:00.846Z,7.20
2019-04-28T20:25:30.229Z,7.10
2019-04-28T20:27:59.745Z,7.30
2019-04-28T20:30:29.209Z,7.30
2019-04-28T20:33:06.852Z,7.20
2019-04-28T20:35:37.079Z,7.20
2019-04-28T20:38:10.755Z,7.30
2019-04-28T20:40:51.955Z,7.30
2019-04-28T20:43:24.090Z,7.30
2019-04-28T20:45:52.643Z,7.30
2019-04-28T20:48:21.907Z,7.40
2019-04-28T20:50:51.265Z,7.40
2019-04-28T20:53:20.651Z,7.50
2019-04-28T20:55:51.062Z,7.30
2019-04-28T20:58:20.404Z,7.30
2019-04-28T21:00:49.720Z,7.40
2019-04-28T21:03:19.034Z,7.40
2019-04-28T21:05:48.330Z,7.40
2019-04-28T21:08:17.649Z,7.50
2019-04-28T21:10:47.118Z,7.40
2019-04-28T21:13:16.445Z,7.40
2019-04-28T21:15:45.735Z,7.30
2019-04-28T21:18:15.053Z,7.40
2019-04-28T21:20:44.360Z,7.30
2019-04-28T21:23:13.689Z,7.20
2019-04-28T21:25:42.990Z,7.20
2019-04-28T21:28:12.311Z,7.30
2019-04-28T21:30:41.769Z,7.30
2019-04-28T21:33:23.420Z,7.20
2019-04-28T21:35:52.711Z,7.10
2019-04-28T21:38:22.027Z,7.10
2019-04-28T21:40:51.424Z,7.10
2019-04-28T21:43:22.395Z,7.10
2019-04-28T21:46:05.597Z,7.10
2019-04-28T21:48:39.527Z,7.20
2019-04-28T21:51:11.701Z,7.20
2019-04-28T21:53:40.079Z,7.10
2019-04-28T21:56:09.378Z,7.10
2019-04-28T21:58:39.078Z,7.10
2019-04-28T22:01:09.896Z,6.90
2019-04-28T22:03:39.894Z,6.80
2019-04-28T22:06:09.276Z,6.90
2019-04-28T22:08:38.578Z,7.00
2019-04-28T22:11:07.898Z,7.10
2019-04-28T22:13:37.250Z,7.10
2019-04-28T22:16:06.944Z,7.10
2019-04-28T22:18:36.238Z,7.20
2019-04-28T22:21:05.635Z,7.20
2019-04-28T22:23:36.590Z,7.20
2019-04-28T22:26:05.888Z,7.10
2019-04-28T22:28:35.211Z,6.90
2019-04-28T22:31:23.849Z,7.00
2019-04-28T22:33:53.167Z,7.10
2019-04-28T22:36:22.564Z,7.10
2019-04-28T22:38:51.864Z,7.10
2019-04-28T22:41:21.196Z,7.20
2019-04-28T22:43:50.486Z,7.20
2019-04-28T22:46:19.800Z,7.20
2019-04-28T22:48:49.123Z,7.10
2019-04-28T22:51:18.526Z,7.20
2019-04-28T22:53:47.825Z,7.20
2019-04-28T22:56:24.696Z,7.30
2019-04-28T22:58:55.645Z,7.20
2019-04-28T23:01:27.752Z,7.10
2019-04-28T23:04:01.342Z,7.10
2019-04-28T23:06:30.801Z,7.20
2019-04-28T23:09:00.115Z,7.10
2019-04-28T23:11:29.548Z,7.10
2019-04-28T23:13:58.874Z,7.10
2019-04-28T23:16:28.232Z,7.20
2019-04-28T23:18:57.829Z,7.10
2019-04-28T23:21:34.762Z,7.10
2019-04-28T23:24:04.165Z,7.00
2019-04-28T23:26:33.469Z,7.10
2019-04-28T23:29:02.785Z,7.00
2019-04-28T23:31:32.106Z,6.90
2019-04-28T23:34:01.420Z,6.80
2019-04-28T23:36:31.788Z,6.70
2019-04-28T23:39:01.108Z,6.70
2019-04-28T23:41:39.492Z,6.80
2019-04-28T23:44:08.826Z,6.90
2019-04-28T23:46:57.921Z,6.90
2019-04-28T23:49:29.486Z,6.90
2019-04-28T23:52:00.615Z,6.80
2019-04-28T23:54:29.936Z,6.80
2019-04-28T23:56:59.228Z,6.90
2019-04-28T23:59:28.545Z,6.90
